createdAt,value
2023-01-04T00:00:20.331Z,89.50
2023-01-04T00:05:22.550Z,89.60
2023-01-04T00:10:24.640Z,89.60
2023-01-04T00:15:28.279Z,89.60
2023-01-04T00:20:30.393Z,89.50
2023-01-04T00:25:32.496Z,89.40
2023-01-04T00:30:35.988Z,89.30
2023-01-04T00:35:46.147Z,89.10
2023-01-04T00:40:48.621Z,89.10
2023-01-04T00:45:52.240Z,89.10
2023-01-04T00:50:54.569Z,88.80
2023-01-04T00:56:02.843Z,88.90
2023-01-04T01:01:09.609Z,88.60
2023-01-04T01:06:11.976Z,88.40
2023-01-04T01:11:14.214Z,88.20
2023-01-04T01:16:37.934Z,88.00
2023-01-04T01:21:42.907Z,87.90
2023-01-04T01:26:45.244Z,87.90
2023-01-04T01:31:48.744Z,87.80
2023-01-04T01:36:50.996Z,87.80
2023-01-04T01:41:53.081Z,87.90
2023-01-04T01:46:56.883Z,88.10
2023-01-04T01:52:02.796Z,88.50
2023-01-04T01:57:07.735Z,88.80
2023-01-04T02:02:12.073Z,89.10
2023-01-04T02:07:19.531Z,89.30
2023-01-04T02:12:21.691Z,89.60
2023-01-04T02:17:38.764Z,90.00
2023-01-04T02:23:12.871Z,90.00
2023-01-04T02:28:24.142Z,90.10
2023-01-04T02:33:39.713Z,90.30
2023-01-04T02:38:54.682Z,90.30
2023-01-04T02:44:07.241Z,90.80
2023-01-04T02:49:10.829Z,90.90
2023-01-04T02:54:15.623Z,91.00
2023-01-04T03:00:05.439Z,91.30
2023-01-04T03:05:15.096Z,91.60
2023-01-04T03:10:24.861Z,91.80
2023-01-04T03:15:31.111Z,91.80
2023-01-04T03:20:34.601Z,92.00
2023-01-04T03:25:41.761Z,92.20
2023-01-04T03:30:50.663Z,92.30
2023-01-04T03:36:03.677Z,92.40
2023-01-04T03:41:15.411Z,92.50
2023-01-04T03:46:26.840Z,92.60
2023-01-04T03:51:34.285Z,92.60
2023-01-04T03:56:38.632Z,92.70
2023-01-04T04:01:44.087Z,92.70
2023-01-04T04:06:47.701Z,92.80
2023-01-04T04:11:50.335Z,92.90
2023-01-04T04:16:52.512Z,93.00
2023-01-04T04:21:56.136Z,93.00
2023-01-04T04:26:58.242Z,93.10
2023-01-04T04:32:01.113Z,93.30
2023-01-04T04:37:04.713Z,93.30
2023-01-04T04:42:06.847Z,93.30
2023-01-04T04:47:08.987Z,93.40
2023-01-04T04:52:12.536Z,93.40
2023-01-04T04:57:14.640Z,93.50
2023-01-04T05:02:16.900Z,93.60
2023-01-04T05:07:20.520Z,93.70
2023-01-04T05:12:24.200Z,93.70
2023-01-04T05:17:26.331Z,93.70
2023-01-04T05:22:29.813Z,93.70
2023-01-04T05:27:32.019Z,93.70
2023-01-04T05:32:36.923Z,93.70
2023-01-04T05:37:40.496Z,93.80
2023-01-04T05:42:42.618Z,93.70
2023-01-04T05:47:44.825Z,93.70
2023-01-04T05:52:48.376Z,93.70
2023-01-04T05:57:51.498Z,93.80
2023-01-04T06:02:53.757Z,93.70
2023-01-04T06:07:58.229Z,93.70
2023-01-04T06:13:00.345Z,93.70
2023-01-04T06:18:02.440Z,93.80
2023-01-04T06:23:05.945Z,93.90
2023-01-04T06:28:08.072Z,93.80
2023-01-04T06:33:10.152Z,93.80
2023-01-04T06:38:13.740Z,93.80
2023-01-04T06:43:16.348Z,93.80
2023-01-04T06:48:18.717Z,93.80
2023-01-04T06:53:22.579Z,93.70
2023-01-04T06:58:24.970Z,93.80
2023-01-04T07:03:27.141Z,93.70
2023-01-04T07:08:30.800Z,93.80
2023-01-04T07:13:33.011Z,93.80
2023-01-04T07:18:35.256Z,93.80
2023-01-04T07:23:38.907Z,93.80
2023-01-04T07:28:41.002Z,93.90
2023-01-04T07:33:43.166Z,93.80
2023-01-04T07:38:46.844Z,93.80
2023-01-04T07:43:48.912Z,93.80
2023-01-04T07:48:51.002Z,93.80
2023-01-04T07:53:57.520Z,93.70
2023-01-04T07:58:59.770Z,93.70
2023-01-04T08:04:02.206Z,93.70
2023-01-04T08:09:07.353Z,93.60
2023-01-04T08:14:09.694Z,93.70
2023-01-04T08:19:15.131Z,93.60
2023-01-04T08:24:19.867Z,93.70
2023-01-04T08:29:22.077Z,93.70
2023-01-04T08:34:24.191Z,93.70
2023-01-04T08:39:28.256Z,93.70
2023-01-04T08:44:30.613Z,93.70
2023-01-04T08:49:32.807Z,93.70
2023-01-04T08:54:36.404Z,93.70
2023-01-04T08:59:38.603Z,93.70
2023-01-04T09:04:40.826Z,93.80
2023-01-04T09:09:44.856Z,94.10
2023-01-04T09:14:47.020Z,93.70
2023-01-04T09:19:49.138Z,93.70
2023-01-04T09:24:52.764Z,93.70
2023-01-04T09:29:55.187Z,93.80
2023-01-04T09:34:57.346Z,93.80
2023-01-04T09:40:00.823Z,93.80
2023-01-04T09:45:23.058Z,93.90
2023-01-04T09:50:30.972Z,93.90
2023-01-04T09:55:41.194Z,93.90
2023-01-04T10:00:47.055Z,93.90
2023-01-04T10:05:49.992Z,94.00
2023-01-04T10:11:06.809Z,93.90
2023-01-04T10:16:30.433Z,94.00
2023-01-04T10:21:45.238Z,94.00
2023-01-04T10:26:52.270Z,93.90
2023-01-04T10:32:00.555Z,93.90
2023-01-04T10:37:13.253Z,93.90
2023-01-04T10:42:21.652Z,93.90
2023-01-04T10:47:32.727Z,93.90
2023-01-04T10:52:39.863Z,93.90
2023-01-04T10:57:51.483Z,93.90
2023-01-04T11:03:02.246Z,93.90
2023-01-04T11:08:13.070Z,93.90
2023-01-04T11:13:16.974Z,94.00
2023-01-04T11:18:19.641Z,94.00
2023-01-04T11:23:21.883Z,93.90
2023-01-04T11:28:30.760Z,93.80
2023-01-04T11:33:51.906Z,93.70
2023-01-04T11:38:56.266Z,93.70
2023-01-04T11:44:02.071Z,93.60
2023-01-04T11:49:04.303Z,93.60
2023-01-04T11:54:18.770Z,93.50
2023-01-04T11:59:25.605Z,93.40
2023-01-04T12:04:29.046Z,93.40
2023-01-04T12:09:32.708Z,93.30
2023-01-04T12:14:37.752Z,93.30
2023-01-04T12:19:42.339Z,93.30
2023-01-04T12:24:45.862Z,93.20
2023-01-04T12:30:00.755Z,93.20
2023-01-04T12:35:03.531Z,93.10
2023-01-04T12:40:52.406Z,93.00
2023-01-04T12:46:31.823Z,92.90
2023-01-04T12:51:35.424Z,92.80
2023-01-04T12:57:22.639Z,92.80
2023-01-04T13:02:27.548Z,92.90
2023-01-04T13:07:33.714Z,92.90
2023-01-04T13:13:01.317Z,93.00
2023-01-04T13:18:34.419Z,92.90
2023-01-04T13:23:38.912Z,92.90
2023-01-04T13:28:41.038Z,92.90
2023-01-04T13:33:46.745Z,92.90
2023-01-04T13:38:50.807Z,92.80
2023-01-04T13:44:03.938Z,92.80
2023-01-04T13:49:10.999Z,92.70
2023-01-04T13:54:21.694Z,92.70
2023-01-04T13:59:23.966Z,92.60
2023-01-04T14:04:28.588Z,92.60
2023-01-04T14:09:38.593Z,92.60
2023-01-04T14:14:48.545Z,92.60
2023-01-04T14:19:53.159Z,92.60
2023-01-04T14:25:08.887Z,92.50
2023-01-04T14:30:23.886Z,92.50
2023-01-04T14:35:30.145Z,92.50
2023-01-04T14:40:37.586Z,92.40
2023-01-04T14:45:39.683Z,92.50
2023-01-04T14:50:41.879Z,92.40
2023-01-04T14:55:45.421Z,92.30
2023-01-04T15:00:47.699Z,92.20
2023-01-04T15:05:50.009Z,92.20
2023-01-04T15:10:59.856Z,92.20
2023-01-04T15:16:02.666Z,92.10
2023-01-04T15:21:05.241Z,92.10
2023-01-04T15:26:10.855Z,92.20
2023-01-04T15:31:14.063Z,92.20
2023-01-04T15:36:23.504Z,92.20
2023-01-04T15:41:27.661Z,92.20
2023-01-04T15:46:29.850Z,92.20
2023-01-04T15:51:32.068Z,92.20
2023-01-04T15:56:35.825Z,92.20
2023-01-04T16:01:39.342Z,92.60
2023-01-04T16:06:41.809Z,92.20
2023-01-04T16:11:47.958Z,92.30
2023-01-04T16:16:50.119Z,92.20
2023-01-04T16:21:52.244Z,92.20
2023-01-04T16:26:55.799Z,92.20
2023-01-04T16:31:58.016Z,92.20
2023-01-04T16:37:00.254Z,92.30
2023-01-04T16:42:08.833Z,92.30
2023-01-04T16:47:13.530Z,92.30
2023-01-04T16:52:16.180Z,92.30
2023-01-04T16:57:19.779Z,92.20
2023-01-04T17:02:22.075Z,92.30
2023-01-04T17:07:24.391Z,92.30
2023-01-04T17:17:52.111Z,92.30
2023-01-04T17:22:54.347Z,92.30
2023-01-04T17:27:57.881Z,92.30
2023-01-04T17:33:00.026Z,92.40
2023-01-04T17:38:02.241Z,92.40
2023-01-04T17:43:05.886Z,92.40
2023-01-04T17:48:08.069Z,92.30
2023-01-04T17:53:10.198Z,92.30
2023-01-04T17:58:16.844Z,92.40
2023-01-04T18:03:20.569Z,92.50
2023-01-04T18:08:22.596Z,92.50
2023-01-04T18:13:26.233Z,92.50
2023-01-04T18:18:28.824Z,92.50
2023-01-04T18:23:30.927Z,92.50
2023-01-04T18:28:35.340Z,92.40
2023-01-04T18:33:37.596Z,92.40
2023-01-04T18:38:39.791Z,92.40
2023-01-04T18:44:05.313Z,92.30
2023-01-04T18:49:05.420Z,92.40
2023-01-04T18:54:08.524Z,92.40
2023-01-04T18:59:12.134Z,92.50
2023-01-04T19:04:14.409Z,92.50
2023-01-04T19:09:16.562Z,92.60
2023-01-04T19:14:20.191Z,92.60
2023-01-04T19:19:22.550Z,92.70
2023-01-04T19:24:24.749Z,92.60
2023-01-04T19:29:28.389Z,92.50
2023-01-04T19:34:30.505Z,92.50
2023-01-04T19:39:32.622Z,92.40
2023-01-04T19:44:36.497Z,92.40
2023-01-04T19:49:38.563Z,92.40
2023-01-04T19:54:40.814Z,92.30
2023-01-04T19:59:44.322Z,92.30
2023-01-04T20:04:46.362Z,92.20
2023-01-04T20:09:48.559Z,92.20
2023-01-04T20:14:52.093Z,92.20
2023-01-04T20:19:54.538Z,92.10
2023-01-04T20:24:56.715Z,92.10
2023-01-04T20:30:00.247Z,92.50
2023-01-04T20:35:02.420Z,92.00
2023-01-04T20:40:05.334Z,92.00
2023-01-04T20:45:09.752Z,92.00
2023-01-04T20:50:11.839Z,92.00
2023-01-04T20:55:17.370Z,92.00
2023-01-04T21:00:21.524Z,92.40
2023-01-04T21:05:23.598Z,92.00
2023-01-04T21:10:25.828Z,92.00
2023-01-04T21:15:29.413Z,92.10
2023-01-04T21:20:31.711Z,92.10
2023-01-04T21:25:33.902Z,92.20
2023-01-04T21:30:39.535Z,92.20
2023-01-04T21:35:42.452Z,92.20
2023-01-04T21:40:44.625Z,92.30
2023-01-04T21:45:48.426Z,92.30
2023-01-04T21:50:50.584Z,92.30
2023-01-04T21:55:58.559Z,92.40
2023-01-04T22:01:07.736Z,92.40
2023-01-04T22:06:10.689Z,92.50
2023-01-04T22:11:14.443Z,92.50
2023-01-04T22:16:18.560Z,92.40
2023-01-04T22:21:22.154Z,92.40
2023-01-04T22:26:27.542Z,92.40
2023-01-04T22:31:31.135Z,92.40
2023-01-04T22:36:33.318Z,92.40
2023-01-04T22:41:35.475Z,92.40
2023-01-04T22:46:39.181Z,92.40
2023-01-04T22:51:41.329Z,92.40
2023-01-04T22:56:45.339Z,92.40
2023-01-04T23:01:48.959Z,92.40
2023-01-04T23:06:51.172Z,92.40
2023-01-04T23:11:53.965Z,92.50
2023-01-04T23:17:00.711Z,92.40
2023-01-04T23:22:02.948Z,92.40
2023-01-04T23:27:05.019Z,92.40
2023-01-04T23:32:08.693Z,92.40
2023-01-04T23:37:10.852Z,92.40
2023-01-04T23:42:13.019Z,92.40
2023-01-04T23:47:16.678Z,92.40
2023-01-04T23:52:18.739Z,92.40
2023-01-04T23:57:20.909Z,92.40
